createdAt,value
2022-12-18T00:01:21.152Z,20.21
2022-12-18T00:03:48.250Z,20.19
2022-12-18T00:06:15.613Z,20.13
2022-12-18T00:08:43.214Z,20.06
2022-12-18T00:11:13.103Z,20.04
2022-12-18T00:13:40.078Z,19.99
2022-12-18T00:16:09.673Z,19.95
2022-12-18T00:18:36.473Z,19.88
2022-12-18T00:21:06.094Z,19.85
2022-12-18T00:23:33.575Z,19.79
2022-12-18T00:26:01.597Z,19.76
2022-12-18T00:28:28.100Z,19.73
2022-12-18T00:31:05.641Z,19.67
2022-12-18T00:33:32.401Z,19.62
2022-12-18T00:36:03.716Z,19.60
2022-12-18T00:38:30.218Z,19.58
2022-12-18T00:40:56.774Z,19.54
2022-12-18T00:43:23.262Z,19.49
2022-12-18T00:45:50.117Z,19.46
2022-12-18T00:48:16.837Z,19.45
2022-12-18T00:50:43.369Z,19.42
2022-12-18T00:53:12.437Z,19.38
2022-12-18T00:55:40.747Z,19.37
2022-12-18T00:58:07.516Z,19.33
2022-12-18T01:00:34.307Z,19.29
2022-12-18T01:03:00.915Z,19.29
2022-12-18T01:05:28.182Z,19.24
2022-12-18T01:07:55.784Z,19.22
2022-12-18T01:10:22.216Z,19.18
2022-12-18T01:12:48.778Z,19.17
2022-12-18T01:15:15.901Z,19.13
2022-12-18T01:17:43.117Z,19.11
2022-12-18T01:20:11.915Z,19.07
2022-12-18T01:22:38.958Z,19.06
2022-12-18T01:25:06.565Z,18.99
2022-12-18T01:27:34.486Z,18.96
2022-12-18T01:30:01.002Z,18.95
2022-12-18T01:32:27.444Z,18.92
2022-12-18T01:34:53.847Z,18.91
2022-12-18T01:37:20.318Z,18.85
2022-12-18T01:39:46.860Z,18.84
2022-12-18T01:42:15.708Z,18.83
2022-12-18T01:44:57.235Z,18.79
2022-12-18T01:47:42.455Z,18.77
2022-12-18T01:50:21.033Z,18.72
2022-12-18T01:53:12.261Z,18.69
2022-12-18T01:55:50.335Z,18.66
2022-12-18T01:58:17.877Z,18.65
2022-12-18T02:00:44.417Z,18.59
2022-12-18T02:03:11.519Z,18.57
2022-12-18T02:06:08.665Z,18.56
2022-12-18T02:08:40.322Z,18.53
2022-12-18T02:11:57.615Z,18.51
2022-12-18T02:14:39.234Z,18.48
2022-12-18T02:17:17.581Z,18.45
2022-12-18T02:19:47.026Z,18.41
2022-12-18T02:22:34.013Z,18.41
2022-12-18T02:25:20.709Z,18.37
2022-12-18T02:27:48.261Z,18.36
2022-12-18T02:30:15.305Z,18.32
2022-12-18T02:32:45.502Z,18.31
2022-12-18T02:35:16.390Z,18.29
2022-12-18T02:37:45.779Z,18.24
2022-12-18T02:40:14.809Z,18.23
2022-12-18T02:42:41.316Z,18.22
2022-12-18T02:45:08.540Z,18.21
2022-12-18T02:47:39.186Z,18.17
2022-12-18T02:50:14.518Z,18.15
2022-12-18T02:52:54.346Z,18.13
2022-12-18T02:55:48.384Z,18.11
2022-12-18T02:58:42.401Z,18.06
2022-12-18T03:01:08.807Z,18.07
2022-12-18T03:04:02.966Z,18.02
2022-12-18T03:06:38.552Z,17.99
2022-12-18T03:09:17.469Z,17.98
2022-12-18T03:12:08.588Z,17.95
2022-12-18T03:14:37.213Z,17.95
2022-12-18T03:17:06.828Z,17.91
2022-12-18T03:19:34.250Z,17.89
2022-12-18T03:22:03.816Z,17.88
2022-12-18T03:24:33.146Z,17.86
2022-12-18T03:27:03.220Z,17.85
2022-12-18T03:29:36.873Z,17.84
2022-12-18T03:32:08.840Z,17.81
2022-12-18T03:34:38.455Z,17.77
2022-12-18T03:37:06.710Z,17.76
2022-12-18T03:39:34.641Z,17.74
2022-12-18T03:42:15.997Z,17.72
2022-12-18T03:44:51.712Z,17.69
2022-12-18T03:47:28.410Z,17.68
2022-12-18T03:50:19.508Z,17.66
2022-12-18T03:52:48.963Z,17.64
2022-12-18T03:55:16.282Z,17.64
2022-12-18T03:57:44.301Z,17.60
2022-12-18T04:00:14.138Z,17.57
2022-12-18T04:02:45.758Z,17.57
2022-12-18T04:05:14.044Z,17.54
2022-12-18T04:07:41.408Z,17.53
2022-12-18T04:10:13.026Z,17.53
2022-12-18T04:12:39.473Z,17.48
2022-12-18T04:15:06.831Z,17.47
2022-12-18T04:17:33.308Z,17.46
2022-12-18T04:19:59.759Z,17.44
2022-12-18T04:22:26.487Z,17.43
2022-12-18T04:24:52.922Z,17.41
2022-12-18T04:27:19.719Z,17.41
2022-12-18T04:29:46.148Z,17.38
2022-12-18T04:32:12.590Z,17.36
2022-12-18T04:34:39.014Z,17.34
2022-12-18T04:37:05.464Z,17.33
2022-12-18T04:39:31.909Z,17.31
2022-12-18T04:42:01.506Z,17.29
2022-12-18T04:44:27.988Z,17.27
2022-12-18T04:46:54.561Z,17.24
2022-12-18T04:49:21.073Z,17.21
2022-12-18T04:51:47.546Z,17.21
2022-12-18T04:54:14.363Z,17.20
2022-12-18T04:56:40.921Z,17.17
2022-12-18T04:59:07.433Z,17.15
2022-12-18T05:01:36.880Z,17.14
2022-12-18T05:04:04.075Z,17.12
2022-12-18T05:06:30.595Z,17.10
2022-12-18T05:08:57.159Z,17.09
2022-12-18T05:11:23.606Z,17.07
2022-12-18T05:13:50.306Z,17.03
2022-12-18T05:16:17.156Z,17.03
2022-12-18T05:18:43.814Z,17.03
2022-12-18T05:21:10.408Z,16.99
2022-12-18T05:23:37.854Z,16.99
2022-12-18T05:26:07.064Z,16.95
2022-12-18T05:28:34.364Z,16.93
2022-12-18T05:31:03.230Z,16.92
2022-12-18T05:33:32.711Z,16.91
2022-12-18T05:36:01.969Z,16.89
2022-12-18T05:38:31.260Z,16.88
2022-12-18T05:40:58.174Z,16.87
2022-12-18T05:43:25.512Z,16.84
2022-12-18T05:45:52.795Z,16.85
2022-12-18T05:48:20.233Z,16.83
2022-12-18T05:50:48.884Z,16.83
2022-12-18T05:53:17.524Z,16.85
2022-12-18T05:55:44.923Z,16.83
2022-12-18T05:58:13.157Z,16.83
2022-12-18T06:00:42.191Z,16.85
2022-12-18T06:03:11.036Z,16.87
2022-12-18T06:05:39.670Z,16.87
2022-12-18T06:08:06.589Z,16.88
2022-12-18T06:10:33.551Z,16.91
2022-12-18T06:13:00.208Z,16.92
2022-12-18T06:15:26.667Z,16.94
2022-12-18T06:17:53.152Z,16.97
2022-12-18T06:20:20.067Z,16.98
2022-12-18T06:22:46.697Z,17.05
2022-12-18T06:25:13.298Z,17.15
2022-12-18T06:27:39.819Z,17.20
2022-12-18T06:30:07.131Z,17.30
2022-12-18T06:32:33.706Z,17.39
2022-12-18T06:35:00.303Z,17.48
2022-12-18T06:37:27.200Z,17.56
2022-12-18T06:39:54.847Z,17.66
2022-12-18T06:42:24.001Z,17.76
2022-12-18T06:44:51.238Z,17.86
2022-12-18T06:47:17.688Z,17.95
2022-12-18T06:49:44.404Z,18.06
2022-12-18T06:52:10.850Z,18.14
2022-12-18T06:54:37.347Z,18.24
2022-12-18T06:57:03.905Z,18.33
2022-12-18T06:59:30.357Z,18.43
2022-12-18T07:01:56.968Z,18.49
2022-12-18T07:04:28.064Z,18.59
2022-12-18T07:06:54.535Z,18.67
2022-12-18T07:09:21.237Z,18.77
2022-12-18T07:11:47.698Z,18.84
2022-12-18T07:14:14.161Z,18.90
2022-12-18T07:16:41.797Z,18.98
2022-12-18T07:19:08.330Z,19.06
2022-12-18T07:21:34.844Z,19.14
2022-12-18T07:24:01.434Z,19.21
2022-12-18T07:26:27.925Z,19.27
2022-12-18T07:28:58.450Z,19.33
2022-12-18T07:31:25.998Z,19.40
2022-12-18T07:33:53.270Z,19.46
2022-12-18T07:36:20.041Z,19.51
2022-12-18T07:38:49.012Z,19.58
2022-12-18T07:41:16.313Z,19.63
2022-12-18T07:43:43.622Z,19.68
2022-12-18T07:46:13.267Z,19.74
2022-12-18T07:48:40.476Z,19.78
2022-12-18T07:51:08.189Z,19.84
2022-12-18T07:53:36.425Z,19.87
2022-12-18T07:58:54.580Z,19.98
2022-12-18T08:01:21.357Z,20.02
2022-12-18T08:03:48.023Z,20.05
2022-12-18T08:06:14.885Z,20.10
2022-12-18T08:08:43.180Z,20.14
2022-12-18T08:11:09.652Z,20.20
2022-12-18T08:13:36.350Z,20.23
2022-12-18T08:16:06.820Z,20.27
2022-12-18T08:18:34.474Z,20.32
2022-12-18T08:21:14.437Z,20.33
2022-12-18T08:23:43.377Z,20.31
2022-12-18T08:26:14.251Z,20.29
2022-12-18T08:28:41.401Z,20.26
2022-12-18T08:31:08.896Z,20.21
2022-12-18T08:33:38.244Z,20.14
2022-12-18T08:36:05.980Z,20.08
2022-12-18T08:38:33.694Z,20.01
2022-12-18T08:41:06.185Z,19.91
2022-12-18T08:43:51.167Z,19.81
2022-12-18T08:46:19.281Z,19.76
2022-12-18T08:48:46.110Z,19.65
2022-12-18T08:51:12.867Z,19.60
2022-12-18T08:53:39.975Z,19.57
2022-12-18T08:56:06.946Z,19.54
2022-12-18T08:58:33.422Z,19.54
2022-12-18T09:01:05.164Z,19.52
2022-12-18T09:03:32.199Z,19.54
2022-12-18T09:05:58.712Z,19.57
2022-12-18T09:08:25.228Z,19.59
2022-12-18T09:10:52.400Z,19.64
2022-12-18T09:13:39.606Z,19.69
2022-12-18T09:16:06.487Z,19.74
2022-12-18T09:18:32.953Z,19.78
2022-12-18T09:20:59.393Z,19.82
2022-12-18T09:23:25.913Z,19.87
2022-12-18T09:25:52.384Z,19.90
2022-12-18T09:28:20.127Z,19.97
2022-12-18T09:30:49.798Z,20.03
2022-12-18T09:33:17.293Z,20.08
2022-12-18T09:35:45.413Z,20.13
2022-12-18T09:38:17.838Z,20.18
2022-12-18T09:40:48.264Z,20.24
2022-12-18T09:43:19.785Z,20.29
2022-12-18T09:45:52.629Z,20.34
2022-12-18T09:48:39.587Z,20.38
2022-12-18T09:51:29.703Z,20.45
2022-12-18T09:54:05.343Z,20.49
2022-12-18T09:56:38.480Z,20.51
2022-12-18T09:59:05.695Z,20.53
2022-12-18T10:01:40.215Z,20.56
2022-12-18T10:04:10.380Z,20.55
2022-12-18T10:06:43.865Z,20.52
2022-12-18T10:09:31.096Z,20.50
2022-12-18T10:12:19.864Z,20.46
2022-12-18T10:15:05.561Z,20.43
2022-12-18T10:18:05.961Z,20.41
2022-12-18T10:20:42.107Z,20.41
2022-12-18T10:23:33.089Z,20.42
2022-12-18T10:26:04.439Z,20.45
2022-12-18T10:28:33.701Z,20.48
2022-12-18T10:31:00.328Z,20.49
2022-12-18T10:33:31.140Z,20.53
2022-12-18T10:35:57.598Z,20.56
2022-12-18T10:38:32.805Z,20.57
2022-12-18T10:41:18.390Z,20.58
2022-12-18T10:43:45.157Z,20.56
2022-12-18T10:46:11.635Z,20.52
2022-12-18T10:48:48.130Z,20.47
2022-12-18T10:53:54.228Z,20.41
2022-12-18T10:54:20.535Z,20.34
2022-12-18T10:56:47.209Z,20.26
2022-12-18T10:59:18.472Z,20.20
2022-12-18T11:01:56.551Z,20.12
2022-12-18T11:04:31.875Z,20.04
2022-12-18T11:07:02.426Z,19.99
2022-12-18T11:09:34.579Z,19.96
2022-12-18T11:12:15.662Z,19.93
2022-12-18T11:14:46.575Z,19.97
2022-12-18T11:17:25.305Z,19.97
2022-12-18T11:20:00.365Z,20.03
2022-12-18T11:22:28.837Z,20.08
2022-12-18T11:27:58.886Z,20.19
2022-12-18T11:30:36.952Z,20.25
2022-12-18T11:33:11.236Z,20.31
2022-12-18T11:35:50.332Z,20.39
2022-12-18T11:38:27.593Z,20.46
2022-12-18T11:40:56.732Z,20.52
2022-12-18T11:43:30.564Z,20.59
2022-12-18T11:46:17.649Z,20.63
2022-12-18T11:48:52.005Z,20.72
2022-12-18T11:51:42.810Z,20.76
2022-12-18T11:54:14.623Z,20.83
2022-12-18T11:57:30.346Z,20.88
2022-12-18T12:00:02.778Z,20.96
2022-12-18T12:02:49.522Z,21.00
2022-12-18T12:05:34.858Z,21.03
2022-12-18T12:08:13.445Z,21.07
2022-12-18T12:10:57.135Z,21.10
2022-12-18T12:13:41.034Z,21.13
2022-12-18T12:16:09.417Z,21.15
2022-12-18T12:18:35.951Z,21.17
2022-12-18T12:21:24.368Z,21.19
2022-12-18T12:24:00.140Z,21.22
2022-12-18T12:26:52.440Z,21.23
2022-12-18T12:29:28.119Z,21.26
2022-12-18T12:32:21.698Z,21.27
2022-12-18T12:35:09.883Z,21.28
2022-12-18T12:38:13.994Z,21.31
2022-12-18T12:40:53.880Z,21.33
2022-12-18T12:43:49.600Z,21.37
2022-12-18T12:46:20.924Z,21.40
2022-12-18T12:48:59.060Z,21.41
2022-12-18T12:51:37.668Z,21.43
2022-12-18T12:54:07.602Z,21.45
2022-12-18T12:56:43.296Z,21.46
2022-12-18T12:59:23.675Z,21.47
2022-12-18T13:02:14.736Z,21.50
2022-12-18T13:04:53.816Z,21.54
2022-12-18T13:07:29.332Z,21.55
2022-12-18T13:10:20.650Z,21.56
2022-12-18T13:12:59.413Z,21.58
2022-12-18T13:15:44.792Z,21.60
2022-12-18T13:18:22.337Z,21.61
2022-12-18T13:21:04.982Z,21.64
2022-12-18T13:23:39.916Z,21.66
2022-12-18T13:26:28.992Z,21.67
2022-12-18T13:28:58.172Z,21.71
2022-12-18T13:31:30.975Z,21.72
2022-12-18T13:34:26.130Z,21.73
2022-12-18T13:36:55.867Z,21.76
2022-12-18T13:39:31.413Z,21.79
2022-12-18T13:42:07.047Z,21.81
2022-12-18T13:44:42.886Z,21.79
2022-12-18T13:47:39.052Z,21.77
2022-12-18T13:50:30.941Z,21.73
2022-12-18T13:53:01.944Z,21.67
2022-12-18T13:55:28.484Z,21.62
2022-12-18T13:58:05.957Z,21.54
2022-12-18T14:00:32.704Z,21.47
2022-12-18T14:03:00.956Z,21.39
2022-12-18T14:05:33.471Z,21.31
2022-12-18T14:08:14.672Z,21.25
2022-12-18T14:10:47.704Z,21.19
2022-12-18T14:13:29.115Z,21.14
2022-12-18T14:15:57.144Z,21.15
2022-12-18T14:18:35.422Z,21.14
2022-12-18T14:21:04.913Z,21.16
2022-12-18T14:23:43.538Z,21.17
2022-12-18T14:26:30.696Z,21.21
2022-12-18T14:28:58.549Z,21.23
2022-12-18T14:31:32.731Z,21.26
2022-12-18T14:33:59.219Z,21.27
2022-12-18T14:36:28.009Z,21.33
2022-12-18T14:38:59.595Z,21.37
2022-12-18T14:41:27.691Z,21.41
2022-12-18T14:43:55.299Z,21.42
2022-12-18T14:46:36.757Z,21.43
2022-12-18T14:49:30.327Z,21.41
2022-12-18T14:52:02.586Z,21.38
2022-12-18T14:54:30.565Z,21.33
2022-12-18T14:57:30.569Z,21.29
2022-12-18T15:00:06.313Z,21.25
2022-12-18T15:02:36.878Z,21.22
2022-12-18T15:05:18.409Z,21.18
2022-12-18T15:07:56.338Z,21.19
2022-12-18T15:10:25.745Z,21.19
2022-12-18T15:13:00.623Z,21.23
2022-12-18T15:15:39.229Z,21.25
2022-12-18T15:18:08.592Z,21.28
2022-12-18T15:20:49.450Z,21.31
2022-12-18T15:23:18.604Z,21.37
2022-12-18T15:25:46.139Z,21.40
2022-12-18T15:28:23.955Z,21.44
2022-12-18T15:31:24.617Z,21.48
2022-12-18T15:33:53.154Z,21.51
2022-12-18T15:36:26.068Z,21.55
2022-12-18T15:38:58.911Z,21.57
2022-12-18T15:41:37.167Z,21.61
2022-12-18T15:44:22.318Z,21.65
2022-12-18T15:46:48.747Z,21.68
2022-12-18T15:49:15.190Z,21.73
2022-12-18T15:51:41.769Z,21.76
2022-12-18T15:54:14.269Z,21.79
2022-12-18T15:56:59.449Z,21.81
2022-12-18T15:59:25.939Z,21.86
2022-12-18T16:01:56.066Z,21.88
2022-12-18T16:04:23.501Z,21.92
2022-12-18T16:07:13.895Z,21.94
2022-12-18T16:09:37.797Z,21.98
2022-12-18T16:12:04.648Z,21.99
2022-12-18T16:14:32.493Z,22.02
2022-12-18T16:17:06.848Z,22.05
2022-12-18T16:19:33.353Z,22.08
2022-12-18T16:21:59.900Z,22.10
2022-12-18T16:24:29.285Z,22.12
2022-12-18T16:26:59.781Z,22.15
2022-12-18T16:29:28.557Z,22.16
2022-12-18T16:31:56.204Z,22.16
2022-12-18T16:34:24.963Z,22.20
2022-12-18T16:37:01.740Z,22.21
2022-12-18T16:39:32.827Z,22.23
2022-12-18T16:42:02.021Z,22.24
2022-12-18T16:44:33.442Z,22.25
2022-12-18T16:47:02.774Z,22.27
2022-12-18T16:49:29.805Z,22.29
2022-12-18T16:51:56.397Z,22.30
2022-12-18T16:54:23.039Z,22.30
2022-12-18T16:56:51.694Z,22.32
2022-12-18T16:59:18.758Z,22.34
2022-12-18T17:01:45.394Z,22.34
2022-12-18T17:04:12.029Z,22.36
2022-12-18T17:06:44.470Z,22.37
2022-12-18T17:09:16.221Z,22.39
2022-12-18T17:11:43.608Z,22.40
2022-12-18T17:14:15.773Z,22.40
2022-12-18T17:16:42.858Z,22.40
2022-12-18T17:19:15.187Z,22.42
2022-12-18T17:21:44.984Z,22.42
2022-12-18T17:24:11.859Z,22.44
2022-12-18T17:26:38.474Z,22.43
2022-12-18T17:29:05.266Z,22.44
2022-12-18T17:31:32.442Z,22.45
2022-12-18T17:33:59.172Z,22.46
2022-12-18T17:36:28.942Z,22.47
2022-12-18T17:38:57.633Z,22.47
2022-12-18T17:41:25.411Z,22.49
2022-12-18T17:43:59.794Z,22.49
2022-12-18T17:46:27.571Z,22.51
2022-12-18T17:48:58.827Z,22.51
2022-12-18T17:51:25.837Z,22.53
2022-12-18T17:53:52.476Z,22.54
2022-12-18T17:56:20.697Z,22.55
2022-12-18T17:58:48.066Z,22.55
2022-12-18T18:01:17.365Z,22.57
2022-12-18T18:03:45.688Z,22.56
2022-12-18T18:06:15.352Z,22.58
2022-12-18T18:08:42.188Z,22.59
2022-12-18T18:11:33.137Z,22.61
2022-12-18T18:14:02.757Z,22.62
2022-12-18T18:16:41.464Z,22.62
2022-12-18T18:19:11.433Z,22.62
2022-12-18T18:21:41.022Z,22.63
2022-12-18T18:24:09.436Z,22.63
2022-12-18T18:26:36.516Z,22.66
2022-12-18T18:29:05.216Z,22.66
2022-12-18T18:31:35.301Z,22.67
2022-12-18T18:34:08.213Z,22.67
2022-12-18T18:36:34.846Z,22.68
2022-12-18T18:39:02.165Z,22.69
2022-12-18T18:41:31.335Z,22.70
2022-12-18T18:43:58.431Z,22.71
2022-12-18T18:46:25.963Z,22.72
2022-12-18T18:48:52.715Z,22.72
2022-12-18T18:51:21.727Z,22.72
2022-12-18T18:53:49.797Z,22.73
2022-12-18T18:59:05.561Z,22.74
2022-12-18T19:01:32.391Z,22.74
2022-12-18T19:03:59.006Z,22.75
2022-12-18T19:06:28.498Z,22.76
2022-12-18T19:08:56.902Z,22.77
2022-12-18T19:11:43.946Z,22.77
2022-12-18T19:14:12.764Z,22.77
2022-12-18T19:16:39.741Z,22.78
2022-12-18T19:19:06.858Z,22.80
2022-12-18T19:21:34.879Z,22.80
2022-12-18T19:24:02.842Z,22.79
2022-12-18T19:26:30.201Z,22.81
2022-12-18T19:29:04.795Z,22.81
2022-12-18T19:31:35.586Z,22.82
2022-12-18T19:34:04.005Z,22.83
2022-12-18T19:36:32.040Z,22.84
2022-12-18T19:39:01.417Z,22.84
2022-12-18T19:41:32.982Z,22.84
2022-12-18T19:44:07.398Z,22.86
2022-12-18T19:46:34.673Z,22.86
2022-12-18T19:49:01.349Z,22.87
2022-12-18T19:51:29.764Z,22.86
2022-12-18T19:53:59.393Z,22.88
2022-12-18T19:56:30.830Z,22.88
2022-12-18T19:58:57.781Z,22.89
2022-12-18T20:01:25.815Z,22.91
2022-12-18T20:03:54.557Z,22.91
2022-12-18T20:06:45.414Z,22.90
2022-12-18T20:09:12.051Z,22.92
2022-12-18T20:11:40.256Z,22.91
2022-12-18T20:14:10.433Z,22.92
2022-12-18T20:16:37.080Z,22.94
2022-12-18T20:19:04.721Z,22.94
2022-12-18T20:21:31.792Z,22.95
2022-12-18T20:23:59.985Z,22.95
2022-12-18T20:26:27.015Z,22.97
2022-12-18T20:28:54.781Z,22.97
2022-12-18T20:31:21.604Z,22.99
2022-12-18T20:33:48.558Z,22.98
2022-12-18T20:36:21.407Z,22.98
2022-12-18T20:38:49.525Z,22.99
2022-12-18T20:41:20.043Z,23.00
2022-12-18T20:43:47.594Z,23.00
2022-12-18T20:46:16.524Z,23.00
2022-12-18T20:48:43.865Z,23.01
2022-12-18T20:51:15.720Z,23.01
2022-12-18T20:53:45.859Z,23.02
2022-12-18T20:56:21.549Z,23.02
2022-12-18T20:58:49.873Z,23.01
2022-12-18T21:01:20.047Z,23.03
2022-12-18T21:03:47.654Z,23.04
2022-12-18T21:06:15.928Z,23.03
2022-12-18T21:08:43.103Z,23.03
2022-12-18T21:11:32.312Z,23.03
2022-12-18T21:13:59.289Z,23.02
2022-12-18T21:16:26.052Z,23.03
2022-12-18T21:18:52.651Z,23.03
2022-12-18T21:21:26.227Z,23.03
2022-12-18T21:23:53.737Z,23.06
2022-12-18T21:26:22.836Z,23.07
2022-12-18T21:28:55.076Z,23.06
2022-12-18T21:31:23.526Z,23.06
2022-12-18T21:33:50.477Z,23.06
2022-12-18T21:36:18.969Z,23.06
2022-12-18T21:38:45.755Z,23.06
2022-12-18T21:41:37.472Z,23.07
2022-12-18T21:44:09.096Z,23.09
2022-12-18T21:46:38.236Z,23.09
2022-12-18T21:49:06.129Z,23.10
2022-12-18T21:51:33.439Z,23.10
2022-12-18T21:54:00.852Z,23.10
2022-12-18T21:56:51.933Z,23.09
2022-12-18T21:59:21.558Z,23.11
2022-12-18T22:01:49.684Z,23.11
2022-12-18T22:04:17.841Z,23.11
2022-12-18T22:06:45.943Z,23.12
2022-12-18T22:09:15.366Z,23.12
2022-12-18T22:11:42.138Z,23.13
2022-12-18T22:14:08.748Z,23.13
2022-12-18T22:16:35.692Z,23.14
2022-12-18T22:19:06.597Z,23.14
2022-12-18T22:21:38.661Z,23.13
2022-12-18T22:24:07.848Z,23.11
2022-12-18T22:26:40.073Z,23.06
2022-12-18T22:29:26.277Z,23.01
2022-12-18T22:31:52.797Z,22.93
2022-12-18T22:34:22.872Z,22.85
2022-12-18T22:36:50.702Z,22.78
2022-12-18T22:39:21.273Z,22.69
2022-12-18T22:41:48.321Z,22.60
2022-12-18T22:44:15.189Z,22.51
2022-12-18T22:46:49.303Z,22.41
2022-12-18T22:49:24.789Z,22.31
2022-12-18T22:51:52.116Z,22.21
2022-12-18T22:54:19.004Z,22.13
2022-12-18T22:56:45.610Z,22.04
2022-12-18T22:59:20.379Z,21.93
2022-12-18T23:01:47.667Z,21.86
2022-12-18T23:04:15.741Z,21.78
2022-12-18T23:06:43.090Z,21.70
2022-12-18T23:09:20.236Z,21.58
2022-12-18T23:11:47.842Z,21.50
2022-12-18T23:14:14.867Z,21.40
2022-12-18T23:16:41.341Z,21.33
2022-12-18T23:19:08.974Z,21.25
2022-12-18T23:21:35.743Z,21.17
2022-12-18T23:24:03.821Z,21.08
2022-12-18T23:26:30.435Z,21.01
2022-12-18T23:28:56.877Z,20.94
2022-12-18T23:31:32.755Z,20.86
2022-12-18T23:34:00.969Z,20.77
2022-12-18T23:36:28.124Z,20.69
2022-12-18T23:38:58.643Z,20.62
2022-12-18T23:41:27.420Z,20.56
2022-12-18T23:43:54.512Z,20.51
2022-12-18T23:46:23.815Z,20.44
2022-12-18T23:48:50.998Z,20.37
2022-12-18T23:51:19.622Z,20.31
2022-12-18T23:53:46.284Z,20.27
2022-12-18T23:56:13.858Z,20.20
2022-12-18T23:58:41.406Z,20.14
